createdAt,value
2018-11-13T00:00:45.146Z,30.73
2018-11-13T00:03:13.609Z,32.50
2018-11-13T00:05:42.068Z,27.20
2018-11-13T00:08:10.474Z,32.93
2018-11-13T00:10:39.020Z,33.00
2018-11-13T00:13:07.499Z,29.37
2018-11-13T00:15:36.009Z,31.57
2018-11-13T00:18:05.884Z,32.20
2018-11-13T00:20:34.554Z,31.03
2018-11-13T00:23:03.460Z,29.60
2018-11-13T00:25:32.415Z,30.10
2018-11-13T00:28:00.839Z,27.27
2018-11-13T00:30:29.735Z,31.70
2018-11-13T00:32:58.183Z,33.07
2018-11-13T00:35:26.639Z,31.87
2018-11-13T00:37:55.288Z,31.97
2018-11-13T00:40:23.697Z,31.63
2018-11-13T00:42:52.138Z,29.03
2018-11-13T00:45:22.864Z,27.30
2018-11-13T00:47:51.712Z,27.47
2018-11-13T00:50:20.934Z,34.80
2018-11-13T00:52:49.792Z,38.47
2018-11-13T00:55:18.439Z,35.83
2018-11-13T00:57:46.961Z,35.10
2018-11-13T01:00:17.766Z,28.83
2018-11-13T01:02:46.411Z,33.03
2018-11-13T01:05:16.223Z,30.10
2018-11-13T01:07:45.797Z,28.30
2018-11-13T01:10:15.497Z,30.17
2018-11-13T01:12:44.913Z,28.97
2018-11-13T01:15:14.426Z,32.40
2018-11-13T01:17:43.847Z,31.63
2018-11-13T01:20:12.472Z,31.43
2018-11-13T01:22:40.949Z,34.93
2018-11-13T01:25:10.562Z,32.73
2018-11-13T01:27:38.984Z,33.70
2018-11-13T01:30:09.063Z,29.23
2018-11-13T01:32:39.055Z,29.17
2018-11-13T01:35:09.297Z,29.00
2018-11-13T01:37:37.735Z,35.93
2018-11-13T01:40:08.894Z,36.10
2018-11-13T01:42:37.341Z,28.10
2018-11-13T01:45:07.396Z,29.70
2018-11-13T01:47:35.895Z,30.97
2018-11-13T01:50:04.434Z,35.83
2018-11-13T01:52:33.080Z,30.40
2018-11-13T01:55:01.376Z,29.27
2018-11-13T01:57:29.813Z,31.10
2018-11-13T01:59:58.290Z,29.67
2018-11-13T02:02:26.707Z,28.10
2018-11-13T02:04:55.174Z,31.30
2018-11-13T02:07:23.645Z,33.20
2018-11-13T02:09:52.102Z,29.40
2018-11-13T02:12:20.577Z,33.20
2018-11-13T02:14:48.977Z,36.70
2018-11-13T02:17:17.441Z,29.40
2018-11-13T02:19:45.849Z,32.60
2018-11-13T02:22:14.324Z,30.97
2018-11-13T02:24:42.832Z,31.83
2018-11-13T02:27:11.269Z,32.60
2018-11-13T02:29:39.649Z,37.33
2018-11-13T02:32:08.093Z,32.17
2018-11-13T02:34:36.573Z,34.30
2018-11-13T02:37:05.002Z,34.93
2018-11-13T02:39:33.435Z,34.90
2018-11-13T02:42:01.858Z,31.63
2018-11-13T02:44:30.268Z,29.83
2018-11-13T02:46:58.749Z,30.17
2018-11-13T02:49:27.200Z,33.93
2018-11-13T02:51:55.631Z,31.77
2018-11-13T02:54:24.016Z,37.77
2018-11-13T02:56:52.393Z,34.23
2018-11-13T02:59:20.940Z,36.37
2018-11-13T03:01:49.323Z,39.27
2018-11-13T03:04:17.744Z,32.57
2018-11-13T03:06:46.142Z,28.87
2018-11-13T03:09:14.638Z,30.70
2018-11-13T03:11:43.035Z,31.47
2018-11-13T03:14:11.575Z,41.17
2018-11-13T03:16:39.952Z,32.03
2018-11-13T03:19:08.362Z,31.07
2018-11-13T03:21:36.776Z,40.77
2018-11-13T03:24:05.459Z,34.67
2018-11-13T03:26:33.845Z,29.20
2018-11-13T03:29:02.285Z,31.77
2018-11-13T03:31:30.893Z,31.67
2018-11-13T03:33:59.220Z,33.20
2018-11-13T03:36:27.758Z,28.77
2018-11-13T03:38:56.167Z,33.00
2018-11-13T03:41:24.701Z,36.33
2018-11-13T03:43:53.100Z,31.27
2018-11-13T03:46:21.587Z,34.17
2018-11-13T03:48:50.006Z,39.47
2018-11-13T03:51:18.512Z,29.70
2018-11-13T03:53:46.952Z,32.43
2018-11-13T03:56:15.376Z,37.37
2018-11-13T03:58:43.776Z,34.87
2018-11-13T04:01:12.226Z,30.80
2018-11-13T04:03:40.605Z,29.43
2018-11-13T04:06:09.114Z,28.70
2018-11-13T04:08:37.553Z,33.20
2018-11-13T04:11:06.405Z,28.10
2018-11-13T04:13:34.852Z,32.00
2018-11-13T04:16:03.287Z,27.03
2018-11-13T04:18:31.787Z,26.93
2018-11-13T04:21:00.243Z,28.67
2018-11-13T04:23:28.660Z,29.03
2018-11-13T04:25:57.121Z,23.50
2018-11-13T04:28:25.555Z,30.60
2018-11-13T04:30:54.026Z,26.63
2018-11-13T04:33:22.389Z,29.10
2018-11-13T04:35:50.845Z,26.50
2018-11-13T04:38:19.291Z,22.93
2018-11-13T04:40:48.045Z,25.03
2018-11-13T04:43:16.480Z,25.07
2018-11-13T04:45:44.889Z,27.63
2018-11-13T04:48:13.310Z,22.67
2018-11-13T04:53:23.445Z,20.63
2018-11-13T04:55:51.896Z,18.93
2018-11-13T04:58:20.342Z,18.17
2018-11-13T05:00:48.925Z,14.63
2018-11-13T05:03:17.328Z,15.23
2018-11-13T05:05:45.728Z,16.27
2018-11-13T05:08:14.134Z,14.27
2018-11-13T05:10:42.570Z,12.77
2018-11-13T05:13:10.984Z,14.00
2018-11-13T05:15:39.352Z,16.07
2018-11-13T05:18:07.776Z,14.20
2018-11-13T05:20:36.194Z,16.17
2018-11-13T05:23:05.040Z,16.00
2018-11-13T05:25:33.464Z,13.43
2018-11-13T05:28:01.865Z,13.90
2018-11-13T05:30:30.485Z,11.93
2018-11-13T05:32:58.921Z,16.80
2018-11-13T05:35:27.358Z,10.10
2018-11-13T05:37:55.734Z,9.83
2018-11-13T05:40:25.157Z,11.70
2018-11-13T05:42:53.594Z,12.90
2018-11-13T05:45:23.559Z,12.03
2018-11-13T05:47:51.980Z,9.87
2018-11-13T05:50:20.796Z,9.63
2018-11-13T05:52:50.723Z,12.33
2018-11-13T05:55:19.163Z,8.40
2018-11-13T05:57:47.818Z,8.83
2018-11-13T06:00:19.106Z,10.33
2018-11-13T06:02:47.577Z,9.43
2018-11-13T06:05:16.047Z,8.73
2018-11-13T06:07:44.500Z,11.30
2018-11-13T06:10:13.349Z,9.47
2018-11-13T06:12:42.041Z,8.67
2018-11-13T06:15:10.806Z,9.67
2018-11-13T06:17:39.227Z,10.43
2018-11-13T06:20:09.420Z,7.83
2018-11-13T06:22:37.914Z,10.23
2018-11-13T06:25:07.861Z,6.67
2018-11-13T06:27:36.668Z,9.30
2018-11-13T06:30:07.998Z,9.40
2018-11-13T06:32:36.463Z,11.03
2018-11-13T06:35:05.272Z,8.90
2018-11-13T06:37:33.666Z,8.67
2018-11-13T06:40:02.115Z,7.43
2018-11-13T06:42:30.529Z,12.37
2018-11-13T06:44:58.977Z,8.80
2018-11-13T06:47:27.446Z,7.63
2018-11-13T06:49:55.913Z,9.47
2018-11-13T06:52:24.438Z,8.90
2018-11-13T06:55:03.173Z,7.70
2018-11-13T06:57:32.519Z,11.33
2018-11-13T07:00:01.627Z,10.43
2018-11-13T07:02:30.112Z,9.50
2018-11-13T07:04:58.800Z,8.57
2018-11-13T07:07:27.198Z,7.60
2018-11-13T07:09:55.807Z,8.90
2018-11-13T07:12:24.264Z,5.93
2018-11-13T07:14:52.752Z,8.03
2018-11-13T07:17:21.204Z,9.87
2018-11-13T07:19:50.693Z,6.43
2018-11-13T07:22:19.143Z,5.63
2018-11-13T07:24:47.656Z,11.83
2018-11-13T07:27:16.200Z,11.50
2018-11-13T07:29:44.573Z,9.87
2018-11-13T07:32:13.164Z,9.67
2018-11-13T07:34:41.622Z,7.73
2018-11-13T07:37:10.047Z,9.30
2018-11-13T07:39:38.505Z,8.00
2018-11-13T07:42:06.973Z,5.93
2018-11-13T07:44:35.445Z,8.93
2018-11-13T07:47:03.937Z,6.13
2018-11-13T07:49:32.362Z,7.07
2018-11-13T07:52:01.148Z,7.40
2018-11-13T07:54:29.985Z,4.07
2018-11-13T07:56:58.434Z,11.67
2018-11-13T07:59:26.876Z,5.60
2018-11-13T08:01:55.345Z,13.70
2018-11-13T08:04:23.797Z,8.87
2018-11-13T08:06:52.344Z,5.83
2018-11-13T08:09:20.727Z,4.57
2018-11-13T08:11:49.220Z,7.20
2018-11-13T08:14:17.703Z,5.67
2018-11-13T08:16:46.154Z,7.93
2018-11-13T08:19:14.603Z,6.40
2018-11-13T08:21:43.098Z,14.53
2018-11-13T08:24:11.547Z,7.90
2018-11-13T08:26:40.013Z,10.90
2018-11-13T08:29:08.478Z,9.30
2018-11-13T08:31:36.884Z,11.37
2018-11-13T08:34:05.780Z,8.57
2018-11-13T08:36:34.233Z,11.90
2018-11-13T08:39:03.120Z,15.90
2018-11-13T08:41:31.558Z,8.10
2018-11-13T08:44:00.063Z,8.03
2018-11-13T08:46:28.451Z,9.27
2018-11-13T08:48:56.932Z,7.50
2018-11-13T08:51:25.591Z,7.63
2018-11-13T08:53:54.156Z,9.13
2018-11-13T08:56:22.591Z,8.43
2018-11-13T08:58:51.210Z,8.10
2018-11-13T09:01:19.652Z,6.03
2018-11-13T09:03:48.123Z,12.50
2018-11-13T09:06:16.609Z,12.60
2018-11-13T09:08:45.034Z,9.53
2018-11-13T09:11:13.552Z,6.60
2018-11-13T09:13:41.893Z,9.33
2018-11-13T09:16:10.288Z,8.77
2018-11-13T09:18:38.843Z,7.97
2018-11-13T09:21:07.356Z,6.07
2018-11-13T09:23:35.785Z,17.53
2018-11-13T09:26:05.242Z,5.67
2018-11-13T09:28:33.783Z,5.73
2018-11-13T09:31:02.363Z,10.43
2018-11-13T09:33:30.802Z,14.20
2018-11-13T09:35:59.188Z,10.60
2018-11-13T09:38:27.653Z,8.27
2018-11-13T09:40:56.081Z,9.87
2018-11-13T09:43:24.582Z,11.90
2018-11-13T09:45:53.096Z,12.93
2018-11-13T09:48:21.581Z,14.17
2018-11-13T09:50:50.291Z,5.90
2018-11-13T09:53:18.635Z,9.50
2018-11-13T09:55:47.056Z,6.27
2018-11-13T09:58:15.562Z,9.97
2018-11-13T10:00:44.156Z,7.17
2018-11-13T10:03:13.115Z,6.80
2018-11-13T10:05:41.136Z,13.13
2018-11-13T10:08:09.454Z,5.27
2018-11-13T10:10:37.960Z,6.83
2018-11-13T10:13:06.399Z,5.00
2018-11-13T10:15:34.859Z,9.13
2018-11-13T10:18:03.411Z,6.23
2018-11-13T10:20:31.697Z,7.03
2018-11-13T10:23:00.473Z,9.83
2018-11-13T10:25:28.888Z,12.80
2018-11-13T10:27:57.372Z,5.90
2018-11-13T10:30:26.143Z,7.67
2018-11-13T10:32:55.172Z,9.67
2018-11-13T10:35:24.940Z,9.23
2018-11-13T10:37:53.462Z,7.17
2018-11-13T10:40:22.664Z,8.43
2018-11-13T10:42:51.729Z,8.30
2018-11-13T10:45:22.102Z,10.40
2018-11-13T10:47:51.544Z,9.97
2018-11-13T10:50:21.761Z,7.37
2018-11-13T10:52:50.236Z,5.90
2018-11-13T10:55:18.712Z,39.70
2018-11-13T10:57:47.129Z,11.30
2018-11-13T11:00:21.537Z,7.00
2018-11-13T11:03:57.041Z,12.07
2018-11-13T11:06:25.514Z,8.67
2018-11-13T11:08:54.510Z,7.93
2018-11-13T11:11:22.925Z,8.03
2018-11-13T11:13:53.281Z,9.03
2018-11-13T11:16:21.939Z,8.97
2018-11-13T11:18:51.045Z,12.73
2018-11-13T11:21:19.389Z,8.10
2018-11-13T11:23:48.008Z,6.53
2018-11-13T11:26:16.357Z,10.00
2018-11-13T11:28:44.847Z,4.17
2018-11-13T11:31:13.297Z,7.63
2018-11-13T11:33:41.726Z,10.90
2018-11-13T11:36:10.144Z,12.23
2018-11-13T11:38:38.686Z,6.77
2018-11-13T11:41:07.152Z,11.33
2018-11-13T11:43:35.657Z,8.07
2018-11-13T11:46:04.096Z,5.73
2018-11-13T11:48:32.565Z,9.57
2018-11-13T11:51:01.013Z,11.10
2018-11-13T11:53:29.441Z,8.90
2018-11-13T11:55:57.896Z,7.57
2018-11-13T11:58:26.390Z,9.13
2018-11-13T12:00:54.816Z,14.77
2018-11-13T12:03:23.291Z,8.20
2018-11-13T12:05:51.709Z,6.60
2018-11-13T12:08:20.165Z,8.50
2018-11-13T12:10:48.567Z,9.23
2018-11-13T12:13:17.037Z,11.00
2018-11-13T12:15:45.478Z,9.93
2018-11-13T12:18:13.969Z,6.77
2018-11-13T12:20:42.425Z,8.30
2018-11-13T12:23:10.845Z,5.50
2018-11-13T12:25:39.314Z,9.53
2018-11-13T12:28:07.734Z,8.53
2018-11-13T12:30:36.298Z,8.53
2018-11-13T12:33:05.348Z,2.80
2018-11-13T12:35:33.776Z,5.27
2018-11-13T12:38:02.218Z,6.30
2018-11-13T12:40:30.712Z,9.93
2018-11-13T12:42:59.187Z,4.67
2018-11-13T12:45:27.726Z,5.00
2018-11-13T12:47:56.162Z,4.30
2018-11-13T12:50:24.641Z,7.43
2018-11-13T12:52:53.045Z,9.60
2018-11-13T12:55:22.932Z,7.07
2018-11-13T12:57:51.480Z,8.90
2018-11-13T13:00:22.996Z,11.57
2018-11-13T13:02:51.584Z,13.50
2018-11-13T13:05:20.104Z,7.93
2018-11-13T13:07:48.505Z,12.80
2018-11-13T13:10:18.225Z,12.47
2018-11-13T13:12:46.714Z,5.40
2018-11-13T13:15:16.461Z,4.77
2018-11-13T13:17:45.322Z,8.43
2018-11-13T13:20:16.333Z,8.07
2018-11-13T13:22:45.980Z,9.33
2018-11-13T13:25:15.752Z,8.27
2018-11-13T13:27:44.215Z,6.40
2018-11-13T13:30:16.922Z,5.20
2018-11-13T13:32:46.382Z,5.03
2018-11-13T13:35:48.904Z,7.43
2018-11-13T13:38:17.413Z,9.53
2018-11-13T13:40:47.238Z,5.13
2018-11-13T13:43:16.183Z,6.67
2018-11-13T13:45:45.886Z,7.40
2018-11-13T13:48:14.544Z,11.70
2018-11-13T13:50:43.925Z,7.13
2018-11-13T13:53:13.481Z,6.77
2018-11-13T13:55:42.356Z,7.13
2018-11-13T13:58:11.136Z,10.87
2018-11-13T14:00:39.591Z,7.03
2018-11-13T14:03:09.178Z,10.00
2018-11-13T14:05:37.870Z,6.70
2018-11-13T14:08:06.978Z,7.90
2018-11-13T14:10:35.560Z,11.00
2018-11-13T14:13:04.048Z,12.17
2018-11-13T14:15:32.508Z,9.40
2018-11-13T14:18:00.950Z,8.53
2018-11-13T14:20:29.480Z,7.90
2018-11-13T14:22:57.967Z,8.67
2018-11-13T14:25:26.484Z,5.47
2018-11-13T14:27:54.952Z,6.63
2018-11-13T14:33:11.140Z,8.63
2018-11-13T14:35:39.748Z,9.20
2018-11-13T14:38:08.107Z,9.50
2018-11-13T14:40:45.085Z,8.50
2018-11-13T14:43:14.730Z,6.63
2018-11-13T14:45:43.622Z,5.10
2018-11-13T14:48:12.616Z,5.67
2018-11-13T14:50:41.493Z,6.40
2018-11-13T14:53:10.559Z,6.70
2018-11-13T14:55:40.541Z,7.23
2018-11-13T14:58:10.445Z,8.43
2018-11-13T15:00:39.452Z,11.73
2018-11-13T15:03:09.333Z,7.13
2018-11-13T15:05:37.885Z,16.73
2018-11-13T15:08:07.568Z,5.77
2018-11-13T15:10:41.686Z,7.90
2018-11-13T15:13:10.672Z,7.20
2018-11-13T15:15:39.117Z,8.53
2018-11-13T15:18:07.893Z,3.50
2018-11-13T15:20:36.444Z,6.90
2018-11-13T15:23:05.761Z,11.50
2018-11-13T15:25:34.263Z,10.50
2018-11-13T15:28:02.756Z,6.77
2018-11-13T15:30:32.832Z,4.67
2018-11-13T15:33:02.799Z,5.53
2018-11-13T15:35:31.273Z,8.73
2018-11-13T15:37:59.705Z,8.67
2018-11-13T15:40:29.416Z,7.27
2018-11-13T15:42:57.850Z,5.17
2018-11-13T15:45:26.457Z,9.50
2018-11-13T15:47:56.104Z,4.33
2018-11-13T15:50:26.040Z,5.80
2018-11-13T15:52:54.807Z,13.60
2018-11-13T15:55:23.333Z,10.30
2018-11-13T15:57:51.933Z,7.63
2018-11-13T16:00:28.028Z,9.00
2018-11-13T16:02:57.583Z,4.57
2018-11-13T16:05:38.832Z,5.57
2018-11-13T16:08:08.123Z,11.40
2018-11-13T16:10:36.723Z,12.70
2018-11-13T16:13:05.337Z,5.53
2018-11-13T16:15:33.934Z,11.97
2018-11-13T16:18:03.737Z,9.20
2018-11-13T16:20:32.204Z,4.63
2018-11-13T16:23:00.640Z,10.97
2018-11-13T16:25:29.185Z,6.73
2018-11-13T16:27:57.593Z,13.50
2018-11-13T16:30:27.554Z,6.50
2018-11-13T16:32:56.032Z,8.17
2018-11-13T16:35:25.637Z,7.60
2018-11-13T16:37:55.132Z,11.70
2018-11-13T16:40:25.724Z,15.23
2018-11-13T16:42:54.343Z,4.37
2018-11-13T16:45:23.833Z,7.87
2018-11-13T16:47:53.715Z,12.40
2018-11-13T16:50:25.634Z,7.77
2018-11-13T16:52:54.920Z,9.87
2018-11-13T16:55:28.688Z,13.70
2018-11-13T16:57:59.033Z,10.33
2018-11-13T17:00:27.528Z,18.83
2018-11-13T17:02:56.196Z,7.33
2018-11-13T17:05:26.021Z,12.87
2018-11-13T17:07:54.415Z,11.53
2018-11-13T17:10:24.301Z,12.60
2018-11-13T17:12:54.217Z,13.83
2018-11-13T17:15:24.818Z,8.37
2018-11-13T17:17:54.252Z,13.43
2018-11-13T17:20:22.768Z,21.53
2018-11-13T17:22:51.697Z,9.17
2018-11-13T17:25:21.694Z,8.80
2018-11-13T17:27:51.277Z,8.47
2018-11-13T17:30:22.429Z,8.63
2018-11-13T17:32:51.456Z,9.33
2018-11-13T17:35:21.254Z,7.07
2018-11-13T17:37:50.475Z,8.47
2018-11-13T17:40:20.539Z,8.93
2018-11-13T17:42:49.985Z,15.07
2018-11-13T17:45:29.407Z,15.03
2018-11-13T17:47:58.125Z,9.63
2018-11-13T17:50:28.066Z,16.67
2018-11-13T17:52:57.560Z,11.00
2018-11-13T17:55:26.203Z,17.43
2018-11-13T17:57:56.123Z,9.73
2018-11-13T18:00:27.107Z,9.37
2018-11-13T18:02:55.673Z,13.70
2018-11-13T18:05:25.183Z,17.20
2018-11-13T18:07:56.480Z,10.00
2018-11-13T18:10:25.468Z,16.10
2018-11-13T18:12:53.939Z,11.57
2018-11-13T18:15:24.706Z,8.50
2018-11-13T18:17:53.208Z,10.23
2018-11-13T18:20:25.011Z,9.07
2018-11-13T18:22:53.568Z,11.57
2018-11-13T18:25:22.031Z,14.80
2018-11-13T18:27:52.796Z,13.07
2018-11-13T18:30:37.887Z,11.83
2018-11-13T18:33:06.957Z,14.47
2018-11-13T18:35:36.987Z,15.67
2018-11-13T18:38:11.532Z,13.00
2018-11-13T18:40:40.022Z,16.63
2018-11-13T18:43:08.612Z,27.13
2018-11-13T18:45:38.773Z,19.60
2018-11-13T18:48:07.621Z,27.43
2018-11-13T18:50:45.479Z,13.97
2018-11-13T18:53:13.977Z,17.40
2018-11-13T18:55:42.878Z,21.33
2018-11-13T18:58:11.386Z,23.13
2018-11-13T19:00:42.001Z,16.03
2018-11-13T19:03:11.620Z,13.60
2018-11-13T19:05:40.433Z,17.63
2018-11-13T19:08:09.669Z,20.93
2018-11-13T19:10:41.717Z,15.97
2018-11-13T19:13:12.863Z,17.60
2018-11-13T19:15:43.895Z,15.13
2018-11-13T19:18:12.810Z,15.30
2018-11-13T19:20:41.519Z,15.03
2018-11-13T19:23:10.181Z,13.97
2018-11-13T19:25:39.220Z,10.70
2018-11-13T19:28:07.664Z,14.60
2018-11-13T19:30:36.154Z,14.57
2018-11-13T19:33:04.666Z,16.43
2018-11-13T19:35:33.236Z,20.20
2018-11-13T19:38:01.590Z,40.50
2018-11-13T19:40:31.661Z,30.30
2018-11-13T19:43:00.708Z,23.10
2018-11-13T19:45:29.160Z,18.03
2018-11-13T19:47:57.673Z,14.70
2018-11-13T19:50:28.393Z,13.53
2018-11-13T19:52:56.955Z,10.17
2018-11-13T19:55:25.974Z,11.47
2018-11-13T19:57:54.545Z,13.27
2018-11-13T20:00:38.259Z,14.00
2018-11-13T20:03:08.004Z,8.33
2018-11-13T20:05:36.455Z,8.47
2018-11-13T20:08:05.412Z,9.30
2018-11-13T20:10:34.802Z,17.57
2018-11-13T20:13:04.400Z,14.03
2018-11-13T20:15:33.638Z,7.73
2018-11-13T20:18:02.098Z,10.73
2018-11-13T20:20:31.647Z,8.90
2018-11-13T20:23:01.137Z,11.40
2018-11-13T20:25:31.092Z,9.97
2018-11-13T20:27:59.554Z,13.97
2018-11-13T20:30:30.082Z,6.63
2018-11-13T20:32:58.533Z,10.27
2018-11-13T20:35:27.092Z,9.10
2018-11-13T20:37:56.232Z,9.43
2018-11-13T20:40:28.313Z,8.33
2018-11-13T20:42:58.087Z,8.07
2018-11-13T20:45:26.545Z,11.30
2018-11-13T20:47:55.106Z,10.80
2018-11-13T20:50:25.872Z,15.37
2018-11-13T20:52:54.347Z,7.97
2018-11-13T20:55:22.829Z,7.50
2018-11-13T20:57:51.263Z,10.97
2018-11-13T21:00:22.065Z,15.47
2018-11-13T21:02:50.593Z,9.43
2018-11-13T21:05:19.186Z,9.77
2018-11-13T21:07:47.621Z,15.00
2018-11-13T21:10:18.091Z,9.37
2018-11-13T21:12:46.523Z,7.03
2018-11-13T21:15:16.359Z,8.13
2018-11-13T21:17:44.825Z,8.97
2018-11-13T21:20:15.781Z,8.33
2018-11-13T21:22:44.287Z,11.93
2018-11-13T21:25:14.266Z,7.07
2018-11-13T21:27:43.714Z,13.43
2018-11-13T21:30:14.732Z,11.13
2018-11-13T21:32:44.109Z,6.23
2018-11-13T21:35:12.997Z,10.73
2018-11-13T21:37:42.696Z,7.60
2018-11-13T21:40:13.181Z,10.43
2018-11-13T21:42:41.784Z,12.17
2018-11-13T21:45:11.135Z,13.07
2018-11-13T21:47:39.643Z,12.67
2018-11-13T21:50:11.194Z,9.70
2018-11-13T21:52:39.698Z,10.23
2018-11-13T21:55:10.034Z,9.47
2018-11-13T21:57:38.466Z,11.30
2018-11-13T22:00:15.335Z,10.90
2018-11-13T22:02:46.290Z,6.23
2018-11-13T22:05:14.688Z,16.70
2018-11-13T22:07:43.188Z,13.07
2018-11-13T22:10:12.233Z,13.23
2018-11-13T22:12:40.724Z,17.10
2018-11-13T22:15:12.098Z,11.13
2018-11-13T22:17:40.240Z,12.50
2018-11-13T22:20:10.123Z,9.73
2018-11-13T22:22:38.924Z,11.93
2018-11-13T22:25:09.917Z,11.53
2018-11-13T22:27:38.543Z,13.30
2018-11-13T22:30:08.215Z,10.30
2018-11-13T22:32:36.743Z,12.13
2018-11-13T22:35:06.514Z,11.40
2018-11-13T22:37:34.999Z,15.23
2018-11-13T22:40:03.602Z,17.70
2018-11-13T22:42:32.036Z,14.30
2018-11-13T22:45:00.488Z,12.77
2018-11-13T22:47:28.913Z,11.83
2018-11-13T22:49:57.394Z,11.43
2018-11-13T22:52:25.813Z,7.97
2018-11-13T22:54:54.382Z,8.20
2018-11-13T22:57:22.792Z,9.67
2018-11-13T22:59:51.602Z,8.20
2018-11-13T23:02:20.073Z,15.77
2018-11-13T23:04:48.484Z,7.67
2018-11-13T23:07:16.902Z,8.70
2018-11-13T23:09:45.325Z,9.53
2018-11-13T23:12:13.717Z,8.33
2018-11-13T23:14:42.180Z,13.80
2018-11-13T23:17:10.634Z,9.60
2018-11-13T23:19:39.109Z,13.93
2018-11-13T23:22:07.535Z,19.20
2018-11-13T23:24:35.931Z,10.90
2018-11-13T23:27:05.034Z,10.77
2018-11-13T23:29:33.477Z,10.73
2018-11-13T23:32:02.114Z,11.23
2018-11-13T23:34:30.355Z,8.30
2018-11-13T23:36:58.898Z,13.47
2018-11-13T23:39:27.341Z,12.60
2018-11-13T23:41:55.815Z,9.87
2018-11-13T23:44:24.290Z,12.60
2018-11-13T23:46:52.689Z,8.33
2018-11-13T23:49:21.146Z,14.27
2018-11-13T23:51:49.546Z,12.57
2018-11-13T23:54:17.909Z,10.23
2018-11-13T23:56:46.362Z,13.40
2018-11-13T23:59:14.805Z,10.17
